createdAt,value
2023-04-19T00:00:59.253Z,101805.63
2023-04-19T00:03:26.271Z,101852.63
2023-04-19T00:05:54.240Z,101840.31
2023-04-19T00:08:21.429Z,101741.19
2023-04-19T00:10:47.801Z,101809.00
2023-04-19T00:13:14.293Z,101822.13
2023-04-19T00:15:40.773Z,101809.09
2023-04-19T00:18:07.447Z,101844.88
2023-04-19T00:20:33.892Z,101846.56
2023-04-19T00:23:00.420Z,101737.84
2023-04-19T00:25:28.347Z,101848.16
2023-04-19T00:27:54.723Z,101743.03
2023-04-19T00:30:21.240Z,101822.03
2023-04-19T00:32:47.697Z,101830.00
2023-04-19T00:35:14.561Z,101738.94
2023-04-19T00:37:40.929Z,101731.03
2023-04-19T00:40:07.994Z,101832.59
2023-04-19T00:42:34.373Z,101848.19
2023-04-19T00:45:00.742Z,101810.97
2023-04-19T00:47:27.221Z,101720.63
2023-04-19T00:49:53.657Z,101755.31
2023-04-19T00:52:21.716Z,101833.41
2023-04-19T00:54:48.807Z,101805.63
2023-04-19T00:57:16.568Z,101849.09
2023-04-19T00:59:43.099Z,101816.13
2023-04-19T01:02:09.912Z,101730.94
2023-04-19T01:04:36.866Z,101802.16
2023-04-19T01:07:03.321Z,101785.63
2023-04-19T01:09:29.757Z,101829.03
2023-04-19T01:11:56.127Z,101738.78
2023-04-19T01:14:22.468Z,101801.47
2023-04-19T01:16:49.071Z,101773.56
2023-04-19T01:19:16.650Z,101805.63
2023-04-19T01:21:43.738Z,101699.66
2023-04-19T01:24:10.140Z,101727.44
2023-04-19T01:26:36.538Z,101768.34
2023-04-19T01:29:02.988Z,101826.63
2023-04-19T01:31:29.479Z,101787.38
2023-04-19T01:33:55.940Z,101743.91
2023-04-19T01:36:22.261Z,101797.78
2023-04-19T01:38:49.908Z,101745.66
2023-04-19T01:41:16.369Z,101761.28
2023-04-19T01:43:42.716Z,101820.38
2023-04-19T01:46:09.101Z,101829.16
2023-04-19T01:48:35.459Z,101713.47
2023-04-19T01:51:01.793Z,101796.00
2023-04-19T01:53:28.207Z,101779.59
2023-04-19T01:55:55.235Z,101821.56
2023-04-19T01:58:21.721Z,101810.25
2023-04-19T02:00:48.124Z,101798.00
2023-04-19T02:03:14.671Z,101794.38
2023-04-19T02:05:41.249Z,101745.69
2023-04-19T02:08:07.624Z,101777.91
2023-04-19T02:10:33.938Z,101799.59
2023-04-19T02:13:00.290Z,101806.84
2023-04-19T02:15:26.617Z,101734.69
2023-04-19T02:17:53.140Z,101766.03
2023-04-19T02:20:19.577Z,101714.75
2023-04-19T02:22:47.747Z,101786.81
2023-04-19T02:25:16.420Z,101662.63
2023-04-19T02:27:42.750Z,101773.00
2023-04-19T02:30:09.598Z,101786.91
2023-04-19T02:32:36.081Z,101797.41
2023-04-19T02:35:02.528Z,101808.75
2023-04-19T02:37:28.860Z,101736.66
2023-04-19T02:39:55.282Z,101782.81
2023-04-19T02:42:21.678Z,101773.22
2023-04-19T02:44:47.999Z,101768.09
2023-04-19T02:47:14.358Z,101710.81
2023-04-19T02:49:41.481Z,101690.75
2023-04-19T02:52:08.450Z,101759.16
2023-04-19T02:54:34.930Z,101743.63
2023-04-19T02:57:01.764Z,101774.81
2023-04-19T02:59:28.130Z,101772.09
2023-04-19T03:01:54.549Z,101762.53
2023-04-19T03:04:22.206Z,101766.19
2023-04-19T03:06:48.622Z,101792.16
2023-04-19T03:09:15.265Z,101764.19
2023-04-19T03:11:41.741Z,101776.47
2023-04-19T03:14:08.136Z,101763.44
2023-04-19T03:16:34.586Z,101773.72
2023-04-19T03:19:00.958Z,101706.91
2023-04-19T03:21:29.026Z,101778.13
2023-04-19T03:23:55.791Z,101802.44
2023-04-19T03:26:22.185Z,101689.50
2023-04-19T03:28:48.529Z,101758.81
2023-04-19T03:31:14.916Z,101701.75
2023-04-19T03:33:41.352Z,101752.00
2023-04-19T03:36:07.994Z,101694.59
2023-04-19T03:38:34.352Z,101776.16
2023-04-19T03:41:00.834Z,101764.91
2023-04-19T03:43:27.206Z,101796.22
2023-04-19T03:45:53.578Z,101750.28
2023-04-19T03:48:19.954Z,101755.44
2023-04-19T03:50:46.311Z,101741.50
2023-04-19T03:53:12.660Z,101764.09
2023-04-19T03:55:38.970Z,101778.81
2023-04-19T03:58:05.365Z,101712.03
2023-04-19T04:00:31.878Z,101705.22
2023-04-19T04:02:58.332Z,101685.28
2023-04-19T04:05:27.804Z,101792.09
2023-04-19T04:07:54.264Z,101620.91
2023-04-19T04:10:20.629Z,101798.31
2023-04-19T04:12:46.983Z,101753.75
2023-04-19T04:15:13.334Z,101696.41
2023-04-19T04:17:39.712Z,101608.81
2023-04-19T04:20:07.669Z,101708.72
2023-04-19T04:22:34.078Z,101630.47
2023-04-19T04:25:02.142Z,101763.16
2023-04-19T04:27:28.585Z,101716.38
2023-04-19T04:29:56.684Z,101643.41
2023-04-19T04:32:23.650Z,101647.78
2023-04-19T04:34:50.424Z,101678.25
2023-04-19T04:37:17.810Z,101767.59
2023-04-19T04:39:44.364Z,101745.06
2023-04-19T04:42:10.803Z,101701.59
2023-04-19T04:44:37.426Z,101689.38
2023-04-19T04:47:03.838Z,101642.50
2023-04-19T04:49:30.723Z,101677.25
2023-04-19T04:52:00.168Z,101757.25
2023-04-19T04:54:26.642Z,101685.94
2023-04-19T04:56:53.002Z,101755.69
2023-04-19T04:59:19.457Z,101746.75
2023-04-19T05:01:46.095Z,101758.13
2023-04-19T05:04:12.567Z,101769.47
2023-04-19T05:06:41.038Z,101739.19
2023-04-19T05:09:08.131Z,101680.03
2023-04-19T05:11:34.643Z,101776.44
2023-04-19T05:14:01.157Z,101764.56
2023-04-19T05:16:27.697Z,101768.69
2023-04-19T05:18:54.242Z,101762.47
2023-04-19T05:21:21.323Z,101797.19
2023-04-19T05:23:47.890Z,101784.28
2023-04-19T05:26:15.467Z,101771.41
2023-04-19T05:28:42.395Z,101762.72
2023-04-19T05:31:09.151Z,101696.66
2023-04-19T05:33:35.617Z,101769.59
2023-04-19T05:36:01.944Z,101746.88
2023-04-19T05:38:28.387Z,101785.94
2023-04-19T05:40:54.709Z,101755.59
2023-04-19T05:43:21.867Z,101762.41
2023-04-19T05:45:48.207Z,101747.75
2023-04-19T05:48:14.698Z,101669.56
2023-04-19T05:50:41.105Z,101794.47
2023-04-19T05:53:07.499Z,101784.75
2023-04-19T05:55:33.820Z,101760.53
2023-04-19T05:58:00.685Z,101689.38
2023-04-19T06:00:28.125Z,101712.19
2023-04-19T06:02:54.733Z,101680.75
2023-04-19T06:05:21.455Z,101780.09
2023-04-19T06:07:55.353Z,101781.66
2023-04-19T06:10:34.027Z,101753.66
2023-04-19T06:13:07.488Z,101771.16
2023-04-19T06:15:33.863Z,101776.31
2023-04-19T06:18:00.300Z,101776.19
2023-04-19T06:20:26.684Z,101801.63
2023-04-19T06:22:53.154Z,101776.16
2023-04-19T06:25:19.640Z,101742.47
2023-04-19T06:27:46.019Z,101796.41
2023-04-19T06:30:12.823Z,101760.78
2023-04-19T06:32:39.308Z,101654.81
2023-04-19T06:35:06.417Z,101793.59
2023-04-19T06:37:33.910Z,101797.06
2023-04-19T06:40:00.850Z,101780.56
2023-04-19T06:42:27.490Z,101777.94
2023-04-19T06:44:56.913Z,101791.81
2023-04-19T06:47:23.280Z,101771.25
2023-04-19T06:49:49.634Z,101776.13
2023-04-19T06:52:16.195Z,101698.72
2023-04-19T06:54:42.613Z,101745.81
2023-04-19T06:57:08.954Z,101767.22
2023-04-19T06:59:38.623Z,101687.28
2023-04-19T07:02:05.082Z,101674.09
2023-04-19T07:04:31.677Z,101748.00
2023-04-19T07:06:58.135Z,101769.75
2023-04-19T07:09:24.698Z,101694.97
2023-04-19T07:11:51.330Z,101685.75
2023-04-19T07:14:20.914Z,101733.28
2023-04-19T07:16:47.652Z,101654.16
2023-04-19T07:19:14.157Z,101714.22
2023-04-19T07:21:40.522Z,101697.72
2023-04-19T07:24:15.353Z,101801.13
2023-04-19T07:26:42.090Z,101761.63
2023-04-19T07:29:08.686Z,101760.94
2023-04-19T07:31:35.570Z,101758.28
2023-04-19T07:34:02.137Z,101744.47
2023-04-19T07:36:28.484Z,101712.97
2023-04-19T07:38:57.993Z,101742.47
2023-04-19T07:41:24.423Z,101774.50
2023-04-19T07:43:50.793Z,101768.31
2023-04-19T07:46:17.364Z,101690.50
2023-04-19T07:48:43.909Z,101685.03
2023-04-19T07:51:16.353Z,101796.97
2023-04-19T07:53:43.697Z,101787.59
2023-04-19T07:56:12.722Z,101696.13
2023-04-19T07:58:39.650Z,101773.41
2023-04-19T08:01:06.082Z,101686.41
2023-04-19T08:03:34.496Z,101633.25
2023-04-19T08:06:02.458Z,101609.53
2023-04-19T08:08:28.841Z,101660.28
2023-04-19T08:10:55.322Z,101741.38
2023-04-19T08:13:21.864Z,101761.41
2023-04-19T08:16:13.343Z,101680.53
2023-04-19T08:18:35.588Z,101743.47
2023-04-19T08:21:02.049Z,101708.69
2023-04-19T08:23:37.821Z,101745.59
2023-04-19T08:26:11.593Z,101711.69
2023-04-19T08:28:38.163Z,101747.78
2023-04-19T08:31:10.047Z,101767.59
2023-04-19T08:33:36.474Z,101689.69
2023-04-19T08:36:02.983Z,101767.78
2023-04-19T08:38:29.388Z,101726.72
2023-04-19T08:40:55.840Z,101755.06
2023-04-19T08:43:25.353Z,101688.72
2023-04-19T08:45:53.679Z,101664.94
2023-04-19T08:48:21.794Z,101733.84
2023-04-19T08:51:04.519Z,101759.47
2023-04-19T08:53:35.638Z,101772.63
2023-04-19T08:58:46.643Z,101710.97
2023-04-19T09:01:31.153Z,101723.31
2023-04-19T09:04:20.721Z,101723.34
2023-04-19T09:06:48.953Z,101699.56
2023-04-19T09:11:55.787Z,101746.47
2023-04-19T09:14:23.538Z,101753.56
2023-04-19T09:16:52.022Z,101657.38
2023-04-19T09:19:23.940Z,101733.91
2023-04-19T09:21:53.804Z,101729.03
2023-04-19T09:25:04.464Z,101682.88
2023-04-19T09:27:29.404Z,101739.41
2023-04-19T09:29:58.195Z,101739.88
2023-04-19T09:32:25.427Z,101680.97
2023-04-19T09:34:57.201Z,101721.72
2023-04-19T09:39:53.776Z,101739.84
2023-04-19T09:42:32.844Z,101715.44
2023-04-19T09:47:36.981Z,101692.22
2023-04-19T09:50:22.055Z,101601.09
2023-04-19T09:52:52.256Z,101675.72
2023-04-19T09:57:48.929Z,101736.13
2023-04-19T10:00:16.003Z,101658.41
2023-04-19T10:02:43.566Z,101683.72
2023-04-19T10:05:20.716Z,101612.59
2023-04-19T10:07:49.937Z,101738.97
2023-04-19T10:10:21.547Z,101699.81
2023-04-19T10:15:24.034Z,101596.53
2023-04-19T10:17:50.908Z,101672.97
2023-04-19T10:20:30.302Z,101718.91
2023-04-19T10:22:57.176Z,101696.25
2023-04-19T10:25:29.753Z,101697.97
2023-04-19T10:27:56.387Z,101726.44
2023-04-19T10:30:24.897Z,101695.28
2023-04-19T10:32:59.345Z,101675.34
2023-04-19T10:35:34.898Z,101725.06
2023-04-19T10:38:09.822Z,101698.03
2023-04-19T10:40:51.811Z,101720.91
2023-04-19T10:43:19.424Z,101699.94
2023-04-19T10:45:46.506Z,101697.56
2023-04-19T10:48:33.237Z,101700.75
2023-04-19T10:51:14.378Z,101682.88
2023-04-19T10:53:44.852Z,101705.06
2023-04-19T10:56:11.593Z,101611.56
2023-04-19T10:59:03.028Z,101700.03
2023-04-19T11:01:33.485Z,101703.47
2023-04-19T11:04:00.522Z,101655.41
2023-04-19T11:06:28.144Z,101673.41
2023-04-19T11:08:55.075Z,101591.28
2023-04-19T11:11:21.695Z,101672.88
2023-04-19T11:13:48.747Z,101666.94
2023-04-19T11:16:16.663Z,101664.56
2023-04-19T11:18:44.740Z,101668.41
2023-04-19T11:21:14.922Z,101643.13
2023-04-19T11:23:41.739Z,101585.75
2023-04-19T11:26:14.169Z,101601.19
2023-04-19T11:28:40.888Z,101650.56
2023-04-19T11:31:07.886Z,101665.03
2023-04-19T11:33:35.601Z,101619.94
2023-04-19T11:36:02.209Z,101620.34
2023-04-19T11:38:28.905Z,101561.47
2023-04-19T11:41:03.067Z,101663.53
2023-04-19T11:43:36.749Z,101628.09
2023-04-19T11:46:11.141Z,101590.91
2023-04-19T11:48:38.745Z,101610.25
2023-04-19T11:51:05.915Z,101643.16
2023-04-19T11:53:33.149Z,101637.94
2023-04-19T11:56:07.514Z,101607.59
2023-04-19T11:58:36.025Z,101648.56
2023-04-19T12:01:06.786Z,101641.59
2023-04-19T12:03:35.420Z,101621.59
2023-04-19T12:06:03.834Z,101622.47
2023-04-19T12:08:42.764Z,101581.09
2023-04-19T12:11:09.144Z,101605.19
2023-04-19T12:13:36.432Z,101618.63
2023-04-19T12:16:03.292Z,101610.31
2023-04-19T12:18:44.383Z,101626.25
2023-04-19T12:21:13.033Z,101559.44
2023-04-19T12:23:39.429Z,101537.97
2023-04-19T12:26:06.005Z,101518.25
2023-04-19T12:28:32.378Z,101624.06
2023-04-19T12:30:59.436Z,101606.56
2023-04-19T12:33:25.887Z,101625.00
2023-04-19T12:35:52.233Z,101615.19
2023-04-19T12:38:18.589Z,101600.47
2023-04-19T12:40:45.370Z,101616.44
2023-04-19T12:43:11.764Z,101575.66
2023-04-19T12:45:38.227Z,101536.34
2023-04-19T12:48:04.842Z,101603.53
2023-04-19T12:50:31.258Z,101599.56
2023-04-19T12:52:57.723Z,101501.69
2023-04-19T12:55:24.335Z,101429.44
2023-04-19T12:57:51.014Z,101559.59
2023-04-19T13:00:17.715Z,101498.59
2023-04-19T13:02:44.277Z,101580.09
2023-04-19T13:05:12.996Z,101557.31
2023-04-19T13:07:40.789Z,101537.22
2023-04-19T13:10:07.919Z,101487.81
2023-04-19T13:12:37.107Z,101557.31
2023-04-19T13:15:04.952Z,101535.84
2023-04-19T13:17:31.695Z,101551.78
2023-04-19T13:19:58.081Z,101520.22
2023-04-19T13:22:24.418Z,101519.06
2023-04-19T13:24:50.822Z,101514.66
2023-04-19T13:27:17.368Z,101544.94
2023-04-19T13:29:43.730Z,101536.69
2023-04-19T13:32:12.408Z,101527.75
2023-04-19T13:34:40.409Z,101560.34
2023-04-19T13:37:08.311Z,101526.72
2023-04-19T13:39:34.807Z,101397.44
2023-04-19T13:42:02.028Z,101529.28
2023-04-19T13:44:29.118Z,101519.56
2023-04-19T13:46:56.224Z,101519.59
2023-04-19T13:49:22.651Z,101517.56
2023-04-19T13:51:50.961Z,101454.22
2023-04-19T13:54:18.752Z,101487.63
2023-04-19T13:56:45.629Z,101515.44
2023-04-19T13:59:12.061Z,101488.19
2023-04-19T14:01:38.600Z,101486.25
2023-04-19T14:04:05.288Z,101504.94
2023-04-19T14:06:32.683Z,101511.13
2023-04-19T14:08:59.081Z,101410.91
2023-04-19T14:11:25.968Z,101476.97
2023-04-19T14:13:53.274Z,101422.22
2023-04-19T14:16:20.970Z,101496.56
2023-04-19T14:18:47.841Z,101502.91
2023-04-19T14:21:14.373Z,101477.84
2023-04-19T14:23:40.764Z,101477.81
2023-04-19T14:26:07.574Z,101487.44
2023-04-19T14:28:34.077Z,101483.13
2023-04-19T14:31:00.488Z,101420.88
2023-04-19T14:33:27.138Z,101483.09
2023-04-19T14:35:53.833Z,101468.59
2023-04-19T14:38:20.232Z,101364.34
2023-04-19T14:40:46.717Z,101470.91
2023-04-19T14:43:16.143Z,101392.78
2023-04-19T14:45:42.596Z,101395.53
2023-04-19T14:48:09.493Z,101449.69
2023-04-19T14:50:35.952Z,101373.50
2023-04-19T14:53:02.354Z,101407.47
2023-04-19T14:55:28.693Z,101403.19
2023-04-19T14:57:55.168Z,101479.53
2023-04-19T15:00:21.640Z,101392.28
2023-04-19T15:02:48.135Z,101379.28
2023-04-19T15:05:15.755Z,101363.59
2023-04-19T15:07:45.117Z,101453.47
2023-04-19T15:10:11.497Z,101376.03
2023-04-19T15:12:37.971Z,101424.78
2023-04-19T15:15:05.716Z,101409.19
2023-04-19T15:17:32.191Z,101359.34
2023-04-19T15:19:58.799Z,101440.94
2023-04-19T15:22:25.378Z,101437.19
2023-04-19T15:24:51.769Z,101435.34
2023-04-19T15:27:18.108Z,101431.50
2023-04-19T15:29:47.234Z,101396.63
2023-04-19T15:32:13.667Z,101337.63
2023-04-19T15:34:40.098Z,101432.53
2023-04-19T15:37:07.992Z,101425.31
2023-04-19T15:39:34.419Z,101436.84
2023-04-19T15:42:01.933Z,101422.94
2023-04-19T15:44:28.289Z,101414.78
2023-04-19T15:46:56.336Z,101413.50
2023-04-19T15:49:22.934Z,101372.41
2023-04-19T15:51:49.348Z,101363.69
2023-04-19T15:54:16.093Z,101323.38
2023-04-19T15:56:42.494Z,101342.38
2023-04-19T15:59:08.816Z,101413.75
2023-04-19T16:01:36.125Z,101308.06
2023-04-19T16:04:04.006Z,101398.81
2023-04-19T16:06:30.533Z,101354.47
2023-04-19T16:08:57.063Z,101391.28
2023-04-19T16:11:23.491Z,101399.91
2023-04-19T16:13:49.916Z,101404.47
2023-04-19T16:16:16.430Z,101396.25
2023-04-19T16:18:43.256Z,101406.06
2023-04-19T16:21:10.591Z,101294.13
2023-04-19T16:23:37.064Z,101360.88
2023-04-19T16:26:03.617Z,101415.34
2023-04-19T16:28:30.053Z,101398.28
2023-04-19T16:30:57.097Z,101313.06
2023-04-19T16:33:23.745Z,101391.34
2023-04-19T16:35:50.195Z,101349.72
2023-04-19T16:38:16.836Z,101417.41
2023-04-19T16:40:46.100Z,101390.13
2023-04-19T16:43:12.555Z,101385.16
2023-04-19T16:45:39.044Z,101279.53
2023-04-19T16:48:05.584Z,101309.00
2023-04-19T16:50:32.090Z,101331.25
2023-04-19T16:52:58.459Z,101366.72
2023-04-19T16:55:25.023Z,101340.44
2023-04-19T16:57:53.615Z,101363.25
2023-04-19T17:00:20.299Z,101302.03
2023-04-19T17:02:48.114Z,101383.63
2023-04-19T17:05:15.971Z,101406.47
2023-04-19T17:07:43.467Z,101372.28
2023-04-19T17:10:10.165Z,101264.94
2023-04-19T17:12:36.692Z,101357.88
2023-04-19T17:15:03.639Z,101370.91
2023-04-19T17:17:30.034Z,101363.28
2023-04-19T17:19:57.502Z,101372.75
2023-04-19T17:22:23.939Z,101369.53
2023-04-19T17:24:50.404Z,101357.09
2023-04-19T17:27:16.814Z,101376.69
2023-04-19T17:29:43.154Z,101374.81
2023-04-19T17:32:09.596Z,101357.19
2023-04-19T17:34:37.080Z,101359.56
2023-04-19T17:37:04.049Z,101388.53
2023-04-19T17:39:30.578Z,101399.56
2023-04-19T17:41:56.966Z,101406.88
2023-04-19T17:44:23.487Z,101396.66
2023-04-19T17:46:49.914Z,101352.38
2023-04-19T17:49:18.854Z,101362.53
2023-04-19T17:51:46.169Z,101282.66
2023-04-19T17:54:12.526Z,101378.72
2023-04-19T17:56:38.940Z,101361.28
2023-04-19T17:59:05.354Z,101370.84
2023-04-19T18:01:33.406Z,101333.63
2023-04-19T18:03:59.959Z,101347.22
2023-04-19T18:06:27.115Z,101350.09
2023-04-19T18:08:53.476Z,101357.31
2023-04-19T18:11:19.849Z,101362.22
2023-04-19T18:13:46.189Z,101369.91
2023-04-19T18:16:13.438Z,101318.53
2023-04-19T18:18:39.827Z,101386.06
2023-04-19T18:21:06.483Z,101409.41
2023-04-19T18:23:32.808Z,101341.88
2023-04-19T18:26:02.832Z,101408.84
2023-04-19T18:28:29.584Z,101394.91
2023-04-19T18:30:56.111Z,101407.59
2023-04-19T18:33:22.486Z,101407.91
2023-04-19T18:35:48.911Z,101389.38
2023-04-19T18:38:15.228Z,101394.75
2023-04-19T18:40:41.582Z,101406.25
2023-04-19T18:43:07.914Z,101351.59
2023-04-19T18:45:34.293Z,101409.63
2023-04-19T18:48:01.154Z,101378.91
2023-04-19T18:50:27.704Z,101429.22
2023-04-19T18:52:54.151Z,101367.91
2023-04-19T18:55:20.541Z,101312.25
2023-04-19T18:57:46.936Z,101380.00
2023-04-19T19:00:14.238Z,101370.59
2023-04-19T19:02:41.406Z,101413.88
2023-04-19T19:05:08.934Z,101403.94
2023-04-19T19:07:37.120Z,101402.84
2023-04-19T19:10:16.765Z,101415.25
2023-04-19T19:12:47.372Z,101427.25
2023-04-19T19:15:14.318Z,101449.41
2023-04-19T19:17:40.875Z,101294.63
2023-04-19T19:20:08.044Z,101323.13
2023-04-19T19:22:34.855Z,101412.53
2023-04-19T19:25:01.344Z,101445.66
2023-04-19T19:27:27.697Z,101440.78
2023-04-19T19:29:54.071Z,101435.47
2023-04-19T19:32:20.596Z,101429.84
2023-04-19T19:34:55.769Z,101428.03
2023-04-19T19:37:26.430Z,101427.94
2023-04-19T19:39:52.800Z,101365.72
2023-04-19T19:42:19.347Z,101404.53
2023-04-19T19:44:45.797Z,101438.31
2023-04-19T19:47:13.173Z,101463.84
2023-04-19T19:52:08.863Z,101449.13
2023-04-19T19:54:35.268Z,101415.31
2023-04-19T19:59:34.863Z,101412.78
2023-04-19T20:02:02.126Z,101459.97
2023-04-19T20:04:29.091Z,101462.06
2023-04-19T20:09:27.684Z,101480.91
2023-04-19T20:11:54.274Z,101436.03
2023-04-19T20:14:23.607Z,101473.22
2023-04-19T20:16:50.477Z,101463.94
2023-04-19T20:19:18.094Z,101461.84
2023-04-19T20:21:44.808Z,101482.34
2023-04-19T20:24:12.297Z,101488.44
2023-04-19T20:26:39.924Z,101413.25
2023-04-19T20:29:06.601Z,101489.03
2023-04-19T20:31:32.988Z,101435.72
2023-04-19T20:33:59.305Z,101454.81
2023-04-19T20:36:27.469Z,101451.34
2023-04-19T20:38:53.886Z,101449.94
2023-04-19T20:41:22.052Z,101483.94
2023-04-19T20:43:48.374Z,101385.84
2023-04-19T20:46:14.877Z,101465.88
2023-04-19T20:48:41.234Z,101321.47
2023-04-19T20:51:07.640Z,101473.00
2023-04-19T20:53:34.310Z,101486.66
2023-04-19T20:56:02.621Z,101447.78
2023-04-19T20:58:28.995Z,101476.19
2023-04-19T21:00:55.454Z,101401.94
2023-04-19T21:03:21.957Z,101454.69
2023-04-19T21:05:48.453Z,101462.97
2023-04-19T21:08:15.974Z,101442.25
2023-04-19T21:10:42.377Z,101480.19
2023-04-19T21:13:08.727Z,101478.44
2023-04-19T21:15:36.786Z,101489.75
2023-04-19T21:18:03.444Z,101498.44
2023-04-19T21:20:29.855Z,101477.03
2023-04-19T21:22:56.165Z,101444.28
2023-04-19T21:25:23.293Z,101357.81
2023-04-19T21:27:49.674Z,101450.69
2023-04-19T21:30:16.183Z,101441.97
2023-04-19T21:32:42.715Z,101455.28
2023-04-19T21:35:09.389Z,101422.00
2023-04-19T21:37:36.597Z,101482.59
2023-04-19T21:40:03.031Z,101476.03
2023-04-19T21:42:29.367Z,101400.09
2023-04-19T21:44:55.842Z,101437.22
2023-04-19T21:47:22.395Z,101458.94
2023-04-19T21:49:50.114Z,101474.41
2023-04-19T21:52:16.657Z,101472.19
2023-04-19T21:54:43.035Z,101427.25
2023-04-19T21:57:10.712Z,101486.00
2023-04-19T21:59:37.617Z,101487.97
2023-04-19T22:02:04.248Z,101354.44
2023-04-19T22:04:31.090Z,101451.81
2023-04-19T22:07:02.422Z,101458.94
2023-04-19T22:09:29.886Z,101479.34
2023-04-19T22:11:56.276Z,101462.47
2023-04-19T22:14:25.504Z,101478.22
2023-04-19T22:16:53.724Z,101427.25
2023-04-19T22:19:20.166Z,101496.97
2023-04-19T22:21:46.764Z,101417.09
2023-04-19T22:24:13.127Z,101437.78
2023-04-19T22:26:39.463Z,101476.94
2023-04-19T22:29:05.863Z,101446.41
2023-04-19T22:31:32.212Z,101444.47
2023-04-19T22:33:58.664Z,101450.81
2023-04-19T22:36:25.082Z,101419.25
2023-04-19T22:38:51.409Z,101465.78
2023-04-19T22:41:17.738Z,101344.59
2023-04-19T22:43:44.075Z,101452.00
2023-04-19T22:46:10.608Z,101407.41
2023-04-19T22:48:37.128Z,101401.34
2023-04-19T22:51:03.690Z,101460.53
2023-04-19T22:53:30.187Z,101422.81
2023-04-19T22:55:56.639Z,101348.56
2023-04-19T22:58:23.134Z,101421.59
2023-04-19T23:00:49.774Z,101433.88
2023-04-19T23:03:16.502Z,101398.06
2023-04-19T23:05:43.074Z,101382.56
2023-04-19T23:08:09.504Z,101384.84
2023-04-19T23:10:38.130Z,101403.78
2023-04-19T23:13:05.790Z,101389.97
2023-04-19T23:15:33.351Z,101293.38
2023-04-19T23:18:02.063Z,101383.66
2023-04-19T23:20:28.975Z,101393.19
2023-04-19T23:22:55.547Z,101228.63
2023-04-19T23:25:21.996Z,101358.75
2023-04-19T23:27:50.314Z,101375.31
2023-04-19T23:30:17.492Z,101412.72
2023-04-19T23:32:43.878Z,101373.75
2023-04-19T23:35:10.358Z,101369.50
2023-04-19T23:37:37.672Z,101392.97
2023-04-19T23:40:08.202Z,101411.28
2023-04-19T23:42:34.661Z,101410.47
2023-04-19T23:45:01.082Z,101362.09
2023-04-19T23:47:27.461Z,101381.22
2023-04-19T23:49:53.896Z,101403.84
2023-04-19T23:52:22.549Z,101389.16
2023-04-19T23:54:49.616Z,101350.94
2023-04-19T23:57:16.045Z,101373.41
2023-04-19T23:59:42.384Z,101359.53
